17:52
Airports
Links
Donate
Help keep this website running!
PayPal
Bitcoin
METAR
CYRJ 191700Z 21019G24KT 25SM FEW020 OVC120 01/M06 A3005 RMK SC1AC8 SC TR SLP188
Current Weather Conditions at CYRJ
VFR 17:00:00 19-02-18
Altimeter:30.05 hg
Temp:1.0°c 34°f
Dew point:-6.0°c 21°f
Wind:19 knots, 21.9 mph, 10 m/s, from 210°
Visibility:25.0 statute miles
12000(OVC) Overcast
2000(FEW) A few
Past METAR reports
VFR 16:00:00 19-02-18
Altimeter:30.08 hg
Temp:0.0°c 32°f
Dew point:-6.0°c 21°f
Wind:22 knots, 25.3 mph, 11 m/s, from 210°
Visibility:25.0 statute miles
14000(OVC) Overcast
13000(BKN) Broken
2000(FEW) A few
CYRJ 191600Z 21022G27KT 25SM DRSN FEW020 BKN130 OVC140 00/M06 A3008 RMK SC1AC7AC1 SC TR SLP197
VFR 15:00:00 19-02-18
Altimeter:30.08 hg
Temp:-1.0°c 30°f
Dew point:-6.0°c 21°f
Wind:13 knots, 15 mph, 7 m/s, from 210°
Visibility:25.0 statute miles
13000(OVC) Overcast
4700(FEW) A few
CYRJ 191500Z 21013G23KT 25SM FEW047 OVC130 M01/M06 A3008 RMK SC1AC8 SC TR SLP201
VFR 14:00:00 19-02-18
Altimeter:30.10 hg
Temp:-2.0°c 28°f
Dew point:-6.0°c 21°f
Wind:15 knots, 17.3 mph, 8 m/s, from 200°
Visibility:25.0 statute miles
13000(OVC) Overcast
4700(FEW) A few
CYRJ 191400Z 20015G28KT 25SM DRSN FEW047 OVC130 M02/M06 A3010 RMK SC1AC7 SLP206
VFR 13:00:00 19-02-18
Altimeter:30.13 hg
Temp:-2.0°c 28°f
Dew point:-6.0°c 21°f
Wind:20 knots, 23 mph, 10 m/s, from 210°
Visibility:25.0 statute miles
14000(OVC) Overcast
4700(FEW) A few
CYRJ 191300Z 21020G26KT 25SM -SN DRSN FEW047 OVC140 M02/M06 A3013 RMK SC2AC6 SLP218
VFR 12:00:00 19-02-18
Altimeter:30.15 hg
Temp:-2.0°c 28°f
Dew point:-6.0°c 21°f
Wind:18 knots, 20.7 mph, 9 m/s, from 200°
Visibility:25.0 statute miles
5600(OVC) Overcast
4700(BKN) Broken
CYRJ 191200Z 20018G26KT 25SM -SN DRSN BKN047 OVC056 M02/M06 A3015 RMK SC7SC1 SLP222
TAF
TAF CYRJ 191238Z 1913/2001 21015G25KT P6SM OVC050 TEMPO 1913/1921 4SM -SN FM192100 23010KT P6SM SCT020 OVC100 TEMPO 1921/2001 4SM -RASN BR OVC020 RMK NXT FCST BY 192000Z
Forecast at CYRJ
TEMPO 13:00 19-02-18 to 21:00 19-02-18
-SN
Visibility:4.0 statute miles
13:00 19-02-18 to 21:00 19-02-18
Wind:15 Knots from 210°
Visibility:6.21 statute miles
5000OVC Overcast
TEMPO 21:00 19-02-18 to 01:00 20-02-18
-RA -SN BR
Visibility:4.0 statute miles
2000OVC Overcast
FM 21:00 19-02-18 to 01:00 20-02-18
Wind:10 Knots from 230°
Visibility:6.21 statute miles
2000SCT Scattered
10000OVC Overcast